sensor_id;sensor_type;location;lat;lon;timestamp;P1;durP1;ratioP1;P2;durP2;ratioP2
73015;SDS011;61893;50.074;14.440;2022-09-27T00:00:42;8.98;;;5.65;;
73015;SDS011;61893;50.074;14.440;2022-09-27T00:03:26;9.98;;;5.40;;
73015;SDS011;61893;50.074;14.440;2022-09-27T00:08:43;8.82;;;5.20;;
73015;SDS011;61893;50.074;14.440;2022-09-27T00:11:11;9.05;;;5.45;;
73015;SDS011;61893;50.074;14.440;2022-09-27T00:14:01;8.45;;;4.85;;
73015;SDS011;61893;50.074;14.440;2022-09-27T00:16:28;8.32;;;4.40;;
73015;SDS011;61893;50.074;14.440;2022-09-27T00:18:59;7.35;;;4.50;;
73015;SDS011;61893;50.074;14.440;2022-09-27T00:21:27;6.78;;;4.38;;
73015;SDS011;61893;50.074;14.440;2022-09-27T00:23:55;8.05;;;4.28;;
73015;SDS011;61893;50.074;14.440;2022-09-27T00:26:21;5.82;;;3.95;;
73015;SDS011;61893;50.074;14.440;2022-09-27T00:28:47;8.13;;;4.40;;
73015;SDS011;61893;50.074;14.440;2022-09-27T00:31:20;9.55;;;4.40;;
73015;SDS011;61893;50.074;14.440;2022-09-27T00:33:50;6.47;;;4.22;;
73015;SDS011;61893;50.074;14.440;2022-09-27T00:36:18;8.52;;;4.40;;
73015;SDS011;61893;50.074;14.440;2022-09-27T00:38:45;8.15;;;4.55;;
73015;SDS011;61893;50.074;14.440;2022-09-27T00:41:14;8.65;;;4.25;;
73015;SDS011;61893;50.074;14.440;2022-09-27T00:43:45;6.68;;;4.03;;
73015;SDS011;61893;50.074;14.440;2022-09-27T00:46:20;7.28;;;3.95;;
73015;SDS011;61893;50.074;14.440;2022-09-27T00:48:56;7.18;;;4.10;;
73015;SDS011;61893;50.074;14.440;2022-09-27T00:51:28;6.82;;;3.83;;
73015;SDS011;61893;50.074;14.440;2022-09-27T00:53:55;6.25;;;3.88;;
73015;SDS011;61893;50.074;14.440;2022-09-27T00:56:24;6.80;;;3.55;;
73015;SDS011;61893;50.074;14.440;2022-09-27T00:58:55;8.90;;;4.47;;
73015;SDS011;61893;50.074;14.440;2022-09-27T01:01:26;5.93;;;3.83;;
73015;SDS011;61893;50.074;14.440;2022-09-27T01:03:57;5.82;;;3.42;;
73015;SDS011;61893;50.074;14.440;2022-09-27T01:06:28;5.55;;;3.67;;
73015;SDS011;61893;50.074;14.440;2022-09-27T01:08:53;6.22;;;3.63;;
73015;SDS011;61893;50.074;14.440;2022-09-27T01:13:56;4.60;;;3.33;;
73015;SDS011;61893;50.074;14.440;2022-09-27T01:22:14;5.28;;;3.67;;
73015;SDS011;61893;50.074;14.440;2022-09-27T01:24:55;6.60;;;3.88;;
73015;SDS011;61893;50.074;14.440;2022-09-27T01:30:44;5.75;;;3.15;;
73015;SDS011;61893;50.074;14.440;2022-09-27T01:33:31;4.78;;;3.55;;
73015;SDS011;61893;50.074;14.440;2022-09-27T01:41:26;5.63;;;3.40;;
73015;SDS011;61893;50.074;14.440;2022-09-27T01:44:00;7.20;;;3.58;;
73015;SDS011;61893;50.074;14.440;2022-09-27T01:46:44;5.95;;;3.50;;
73015;SDS011;61893;50.074;14.440;2022-09-27T01:49:16;5.18;;;3.35;;
73015;SDS011;61893;50.074;14.440;2022-09-27T01:52:21;5.18;;;3.38;;
73015;SDS011;61893;50.074;14.440;2022-09-27T01:54:42;7.75;;;3.60;;
73015;SDS011;61893;50.074;14.440;2022-09-27T01:57:19;6.60;;;3.75;;
73015;SDS011;61893;50.074;14.440;2022-09-27T01:59:50;5.55;;;3.45;;
73015;SDS011;61893;50.074;14.440;2022-09-27T02:02:20;6.05;;;3.60;;
73015;SDS011;61893;50.074;14.440;2022-09-27T02:04:57;4.55;;;3.30;;
73015;SDS011;61893;50.074;14.440;2022-09-27T02:07:28;5.95;;;3.67;;
73015;SDS011;61893;50.074;14.440;2022-09-27T02:10:04;5.55;;;3.30;;
73015;SDS011;61893;50.074;14.440;2022-09-27T02:12:38;5.38;;;3.50;;
73015;SDS011;61893;50.074;14.440;2022-09-27T02:15:11;5.75;;;3.40;;
73015;SDS011;61893;50.074;14.440;2022-09-27T02:17:55;5.15;;;3.53;;
73015;SDS011;61893;50.074;14.440;2022-09-27T02:20:34;7.07;;;3.30;;
73015;SDS011;61893;50.074;14.440;2022-09-27T02:23:20;5.00;;;3.33;;
73015;SDS011;61893;50.074;14.440;2022-09-27T02:25:56;5.75;;;3.30;;
73015;SDS011;61893;50.074;14.440;2022-09-27T02:28:39;5.07;;;3.67;;
73015;SDS011;61893;50.074;14.440;2022-09-27T02:31:09;4.78;;;3.50;;
73015;SDS011;61893;50.074;14.440;2022-09-27T02:33:49;4.30;;;3.45;;
73015;SDS011;61893;50.074;14.440;2022-09-27T02:36:28;4.00;;;3.15;;
73015;SDS011;61893;50.074;14.440;2022-09-27T02:38:55;4.47;;;3.40;;
73015;SDS011;61893;50.074;14.440;2022-09-27T02:41:21;5.57;;;2.92;;
73015;SDS011;61893;50.074;14.440;2022-09-27T02:43:48;7.50;;;3.10;;
73015;SDS011;61893;50.074;14.440;2022-09-27T02:46:28;6.70;;;3.45;;
73015;SDS011;61893;50.074;14.440;2022-09-27T02:51:52;3.97;;;3.00;;
73015;SDS011;61893;50.074;14.440;2022-09-27T02:54:43;4.85;;;3.10;;
73015;SDS011;61893;50.074;14.440;2022-09-27T02:59:58;4.10;;;3.08;;
73015;SDS011;61893;50.074;14.440;2022-09-27T03:02:37;3.67;;;2.85;;
73015;SDS011;61893;50.074;14.440;2022-09-27T03:05:14;4.82;;;3.10;;
73015;SDS011;61893;50.074;14.440;2022-09-27T03:07:44;3.90;;;2.70;;
73015;SDS011;61893;50.074;14.440;2022-09-27T03:10:23;5.88;;;2.63;;
73015;SDS011;61893;50.074;14.440;2022-09-27T03:12:51;4.13;;;2.97;;
73015;SDS011;61893;50.074;14.440;2022-09-27T03:15:18;4.35;;;3.00;;
73015;SDS011;61893;50.074;14.440;2022-09-27T03:17:44;5.15;;;2.92;;
73015;SDS011;61893;50.074;14.440;2022-09-27T03:20:10;5.53;;;2.90;;
73015;SDS011;61893;50.074;14.440;2022-09-27T03:22:36;4.82;;;2.72;;
73015;SDS011;61893;50.074;14.440;2022-09-27T03:25:03;4.07;;;2.50;;
73015;SDS011;61893;50.074;14.440;2022-09-27T03:27:37;4.30;;;2.53;;
73015;SDS011;61893;50.074;14.440;2022-09-27T03:30:03;4.28;;;2.70;;
73015;SDS011;61893;50.074;14.440;2022-09-27T03:32:32;4.97;;;2.55;;
73015;SDS011;61893;50.074;14.440;2022-09-27T03:34:58;4.30;;;2.97;;
73015;SDS011;61893;50.074;14.440;2022-09-27T03:37:24;3.85;;;2.60;;
73015;SDS011;61893;50.074;14.440;2022-09-27T03:39:51;3.20;;;2.40;;
73015;SDS011;61893;50.074;14.440;2022-09-27T03:42:17;5.70;;;3.15;;
73015;SDS011;61893;50.074;14.440;2022-09-27T03:44:44;4.63;;;2.70;;
73015;SDS011;61893;50.074;14.440;2022-09-27T03:47:10;3.78;;;2.33;;
73015;SDS011;61893;50.074;14.440;2022-09-27T03:49:36;5.00;;;2.42;;
73015;SDS011;61893;50.074;14.440;2022-09-27T03:52:02;4.85;;;3.50;;
73015;SDS011;61893;50.074;14.440;2022-09-27T03:54:28;4.63;;;2.55;;
73015;SDS011;61893;50.074;14.440;2022-09-27T03:56:54;3.72;;;2.50;;
73015;SDS011;61893;50.074;14.440;2022-09-27T03:59:19;3.55;;;2.38;;
73015;SDS011;61893;50.074;14.440;2022-09-27T04:01:45;6.82;;;4.53;;
73015;SDS011;61893;50.074;14.440;2022-09-27T04:04:11;3.50;;;2.40;;
73015;SDS011;61893;50.074;14.440;2022-09-27T04:06:37;8.25;;;5.43;;
73015;SDS011;61893;50.074;14.440;2022-09-27T04:09:03;3.85;;;2.80;;
73015;SDS011;61893;50.074;14.440;2022-09-27T04:11:29;4.38;;;2.78;;
73015;SDS011;61893;50.074;14.440;2022-09-27T04:13:55;5.28;;;2.78;;
73015;SDS011;61893;50.074;14.440;2022-09-27T04:16:21;4.65;;;3.47;;
73015;SDS011;61893;50.074;14.440;2022-09-27T04:18:47;6.18;;;3.58;;
73015;SDS011;61893;50.074;14.440;2022-09-27T04:21:13;2.80;;;2.33;;
73015;SDS011;61893;50.074;14.440;2022-09-27T04:23:38;3.80;;;2.63;;
73015;SDS011;61893;50.074;14.440;2022-09-27T04:26:07;6.07;;;3.00;;
73015;SDS011;61893;50.074;14.440;2022-09-27T04:28:33;3.50;;;2.30;;
73015;SDS011;61893;50.074;14.440;2022-09-27T04:30:59;3.92;;;2.20;;
73015;SDS011;61893;50.074;14.440;2022-09-27T04:33:25;4.82;;;2.75;;
73015;SDS011;61893;50.074;14.440;2022-09-27T04:35:51;4.63;;;2.40;;
73015;SDS011;61893;50.074;14.440;2022-09-27T04:38:36;7.20;;;2.75;;
73015;SDS011;61893;50.074;14.440;2022-09-27T04:41:03;3.53;;;2.55;;
73015;SDS011;61893;50.074;14.440;2022-09-27T04:43:31;8.60;;;4.95;;
73015;SDS011;61893;50.074;14.440;2022-09-27T04:45:57;3.78;;;2.55;;
73015;SDS011;61893;50.074;14.440;2022-09-27T04:48:23;4.00;;;2.45;;
73015;SDS011;61893;50.074;14.440;2022-09-27T04:50:57;4.70;;;2.55;;
73015;SDS011;61893;50.074;14.440;2022-09-27T04:53:27;3.45;;;2.30;;
73015;SDS011;61893;50.074;14.440;2022-09-27T04:55:54;2.92;;;2.20;;
73015;SDS011;61893;50.074;14.440;2022-09-27T04:58:20;3.33;;;2.45;;
73015;SDS011;61893;50.074;14.440;2022-09-27T05:00:47;5.13;;;2.78;;
73015;SDS011;61893;50.074;14.440;2022-09-27T05:03:14;3.17;;;2.40;;
73015;SDS011;61893;50.074;14.440;2022-09-27T05:05:43;4.20;;;2.63;;
73015;SDS011;61893;50.074;14.440;2022-09-27T05:08:09;5.80;;;2.53;;
73015;SDS011;61893;50.074;14.440;2022-09-27T05:10:35;3.15;;;2.40;;
73015;SDS011;61893;50.074;14.440;2022-09-27T05:13:01;3.05;;;2.20;;
73015;SDS011;61893;50.074;14.440;2022-09-27T05:15:28;4.82;;;2.63;;
73015;SDS011;61893;50.074;14.440;2022-09-27T05:17:54;2.97;;;2.25;;
73015;SDS011;61893;50.074;14.440;2022-09-27T05:20:20;3.60;;;2.47;;
73015;SDS011;61893;50.074;14.440;2022-09-27T05:22:46;6.47;;;2.55;;
73015;SDS011;61893;50.074;14.440;2022-09-27T05:25:12;4.45;;;2.20;;
73015;SDS011;61893;50.074;14.440;2022-09-27T05:27:38;3.15;;;2.28;;
73015;SDS011;61893;50.074;14.440;2022-09-27T05:30:05;3.53;;;2.38;;
73015;SDS011;61893;50.074;14.440;2022-09-27T05:32:33;3.03;;;2.35;;
73015;SDS011;61893;50.074;14.440;2022-09-27T05:35:39;4.28;;;2.30;;
73015;SDS011;61893;50.074;14.440;2022-09-27T05:38:12;3.97;;;2.40;;
73015;SDS011;61893;50.074;14.440;2022-09-27T05:40:41;4.75;;;2.40;;
73015;SDS011;61893;50.074;14.440;2022-09-27T05:43:11;3.47;;;2.30;;
73015;SDS011;61893;50.074;14.440;2022-09-27T05:45:59;3.08;;;2.08;;
73015;SDS011;61893;50.074;14.440;2022-09-27T05:48:30;3.65;;;2.25;;
73015;SDS011;61893;50.074;14.440;2022-09-27T05:50:59;4.13;;;2.38;;
73015;SDS011;61893;50.074;14.440;2022-09-27T05:54:00;2.92;;;2.25;;
73015;SDS011;61893;50.074;14.440;2022-09-27T05:57:00;3.03;;;2.20;;
73015;SDS011;61893;50.074;14.440;2022-09-27T05:59:56;3.10;;;2.05;;
73015;SDS011;61893;50.074;14.440;2022-09-27T06:03:06;4.13;;;2.33;;
73015;SDS011;61893;50.074;14.440;2022-09-27T06:05:53;6.00;;;2.17;;
73015;SDS011;61893;50.074;14.440;2022-09-27T06:08:20;4.22;;;2.13;;
73015;SDS011;61893;50.074;14.440;2022-09-27T06:10:46;4.60;;;2.20;;
73015;SDS011;61893;50.074;14.440;2022-09-27T06:13:44;3.33;;;2.08;;
73015;SDS011;61893;50.074;14.440;2022-09-27T06:16:11;4.05;;;2.38;;
73015;SDS011;61893;50.074;14.440;2022-09-27T06:18:37;5.00;;;2.20;;
73015;SDS011;61893;50.074;14.440;2022-09-27T06:21:04;5.55;;;2.13;;
73015;SDS011;61893;50.074;14.440;2022-09-27T06:24:26;6.35;;;2.40;;
73015;SDS011;61893;50.074;14.440;2022-09-27T06:26:58;6.07;;;2.28;;
73015;SDS011;61893;50.074;14.440;2022-09-27T06:29:24;3.60;;;2.40;;
73015;SDS011;61893;50.074;14.440;2022-09-27T06:31:58;7.60;;;2.45;;
73015;SDS011;61893;50.074;14.440;2022-09-27T06:34:28;2.42;;;2.00;;
73015;SDS011;61893;50.074;14.440;2022-09-27T06:37:04;4.35;;;2.00;;
73015;SDS011;61893;50.074;14.440;2022-09-27T06:39:33;3.22;;;2.10;;
73015;SDS011;61893;50.074;14.440;2022-09-27T06:42:32;4.18;;;2.30;;
73015;SDS011;61893;50.074;14.440;2022-09-27T06:45:10;4.80;;;2.10;;
73015;SDS011;61893;50.074;14.440;2022-09-27T06:48:13;2.88;;;1.92;;
73015;SDS011;61893;50.074;14.440;2022-09-27T06:51:04;5.10;;;2.10;;
73015;SDS011;61893;50.074;14.440;2022-09-27T06:54:43;3.10;;;1.70;;
73015;SDS011;61893;50.074;14.440;2022-09-27T06:57:32;3.50;;;1.60;;
73015;SDS011;61893;50.074;14.440;2022-09-27T07:00:36;8.30;;;2.13;;
73015;SDS011;61893;50.074;14.440;2022-09-27T07:03:09;4.63;;;2.10;;
73015;SDS011;61893;50.074;14.440;2022-09-27T07:08:51;4.10;;;1.90;;
73015;SDS011;61893;50.074;14.440;2022-09-27T07:11:20;3.65;;;1.70;;
73015;SDS011;61893;50.074;14.440;2022-09-27T07:14:08;3.00;;;1.80;;
73015;SDS011;61893;50.074;14.440;2022-09-27T07:16:53;2.65;;;1.70;;
73015;SDS011;61893;50.074;14.440;2022-09-27T07:19:20;2.35;;;1.70;;
73015;SDS011;61893;50.074;14.440;2022-09-27T07:21:59;4.90;;;1.70;;
73015;SDS011;61893;50.074;14.440;2022-09-27T07:24:33;6.25;;;2.10;;
73015;SDS011;61893;50.074;14.440;2022-09-27T07:27:07;2.88;;;1.80;;
73015;SDS011;61893;50.074;14.440;2022-09-27T07:29:43;5.38;;;2.00;;
73015;SDS011;61893;50.074;14.440;2022-09-27T07:32:29;2.47;;;1.67;;
73015;SDS011;61893;50.074;14.440;2022-09-27T07:35:09;6.75;;;1.80;;
73015;SDS011;61893;50.074;14.440;2022-09-27T07:38:14;5.78;;;2.10;;
73015;SDS011;61893;50.074;14.440;2022-09-27T07:40:45;5.13;;;1.60;;
73015;SDS011;61893;50.074;14.440;2022-09-27T07:43:14;4.35;;;1.83;;
73015;SDS011;61893;50.074;14.440;2022-09-27T07:45:54;3.72;;;1.63;;
73015;SDS011;61893;50.074;14.440;2022-09-27T07:48:25;3.10;;;1.85;;
73015;SDS011;61893;50.074;14.440;2022-09-27T07:51:30;3.85;;;1.80;;
73015;SDS011;61893;50.074;14.440;2022-09-27T07:54:27;4.18;;;1.50;;
73015;SDS011;61893;50.074;14.440;2022-09-27T08:00:05;4.20;;;1.23;;
73015;SDS011;61893;50.074;14.440;2022-09-27T08:02:53;1.50;;;1.20;;
73015;SDS011;61893;50.074;14.440;2022-09-27T08:05:51;2.58;;;1.20;;
73015;SDS011;61893;50.074;14.440;2022-09-27T08:08:57;2.38;;;1.10;;
73015;SDS011;61893;50.074;14.440;2022-09-27T08:11:39;1.60;;;1.00;;
73015;SDS011;61893;50.074;14.440;2022-09-27T08:14:43;1.40;;;1.10;;
73015;SDS011;61893;50.074;14.440;2022-09-27T08:17:32;2.05;;;1.00;;
73015;SDS011;61893;50.074;14.440;2022-09-27T08:20:17;2.03;;;1.17;;
73015;SDS011;61893;50.074;14.440;2022-09-27T08:23:22;1.38;;;0.90;;
73015;SDS011;61893;50.074;14.440;2022-09-27T08:26:31;2.72;;;1.50;;
73015;SDS011;61893;50.074;14.440;2022-09-27T08:29:35;3.50;;;1.20;;
73015;SDS011;61893;50.074;14.440;2022-09-27T08:33:36;0.93;;;0.80;;
73015;SDS011;61893;50.074;14.440;2022-09-27T08:36:22;2.10;;;1.02;;
73015;SDS011;61893;50.074;14.440;2022-09-27T08:40:12;3.00;;;1.20;;
73015;SDS011;61893;50.074;14.440;2022-09-27T08:49:30;2.60;;;0.90;;
73015;SDS011;61893;50.074;14.440;2022-09-27T08:52:38;2.38;;;0.85;;
73015;SDS011;61893;50.074;14.440;2022-09-27T08:55:40;1.67;;;0.80;;
73015;SDS011;61893;50.074;14.440;2022-09-27T08:58:29;1.98;;;0.90;;
73015;SDS011;61893;50.074;14.440;2022-09-27T09:01:34;1.13;;;0.85;;
73015;SDS011;61893;50.074;14.440;2022-09-27T09:04:36;1.70;;;0.90;;
73015;SDS011;61893;50.074;14.440;2022-09-27T09:07:25;0.73;;;0.63;;
73015;SDS011;61893;50.074;14.440;2022-09-27T09:11:10;1.55;;;0.80;;
73015;SDS011;61893;50.074;14.440;2022-09-27T09:18:14;1.67;;;0.93;;
73015;SDS011;61893;50.074;14.440;2022-09-27T09:21:21;1.48;;;0.73;;
73015;SDS011;61893;50.074;14.440;2022-09-27T09:24:55;1.98;;;1.00;;
73015;SDS011;61893;50.074;14.440;2022-09-27T09:34:24;5.78;;;0.80;;
73015;SDS011;61893;50.074;14.440;2022-09-27T09:37:43;1.90;;;0.70;;
73015;SDS011;61893;50.074;14.440;2022-09-27T09:40:22;2.35;;;0.90;;
73015;SDS011;61893;50.074;14.440;2022-09-27T09:46:37;0.90;;;0.70;;
73015;SDS011;61893;50.074;14.440;2022-09-27T09:57:19;1.35;;;0.82;;
73015;SDS011;61893;50.074;14.440;2022-09-27T10:00:17;1.35;;;0.80;;
73015;SDS011;61893;50.074;14.440;2022-09-27T10:03:21;2.03;;;1.10;;
73015;SDS011;61893;50.074;14.440;2022-09-27T10:09:12;2.60;;;0.70;;
73015;SDS011;61893;50.074;14.440;2022-09-27T10:11:49;1.10;;;0.70;;
73015;SDS011;61893;50.074;14.440;2022-09-27T10:14:17;1.17;;;0.70;;
73015;SDS011;61893;50.074;14.440;2022-09-27T10:16:47;0.85;;;0.50;;
73015;SDS011;61893;50.074;14.440;2022-09-27T10:19:31;1.42;;;0.65;;
73015;SDS011;61893;50.074;14.440;2022-09-27T10:22:00;1.15;;;0.60;;
73015;SDS011;61893;50.074;14.440;2022-09-27T10:24:54;1.52;;;0.68;;
73015;SDS011;61893;50.074;14.440;2022-09-27T10:30:30;1.13;;;0.70;;
73015;SDS011;61893;50.074;14.440;2022-09-27T10:33:18;2.08;;;0.80;;
73015;SDS011;61893;50.074;14.440;2022-09-27T10:35:45;1.05;;;0.60;;
73015;SDS011;61893;50.074;14.440;2022-09-27T10:38:50;0.82;;;0.70;;
73015;SDS011;61893;50.074;14.440;2022-09-27T10:41:31;4.03;;;0.60;;
73015;SDS011;61893;50.074;14.440;2022-09-27T10:47:07;0.85;;;0.47;;
73015;SDS011;61893;50.074;14.440;2022-09-27T10:50:03;1.10;;;0.60;;
73015;SDS011;61893;50.074;14.440;2022-09-27T10:52:34;1.63;;;0.50;;
73015;SDS011;61893;50.074;14.440;2022-09-27T10:55:15;0.55;;;0.50;;
73015;SDS011;61893;50.074;14.440;2022-09-27T10:57:49;1.58;;;0.45;;
73015;SDS011;61893;50.074;14.440;2022-09-27T11:00:33;1.08;;;0.50;;
73015;SDS011;61893;50.074;14.440;2022-09-27T11:03:52;0.63;;;0.40;;
73015;SDS011;61893;50.074;14.440;2022-09-27T11:06:42;0.60;;;0.40;;
73015;SDS011;61893;50.074;14.440;2022-09-27T11:09:22;0.63;;;0.40;;
73015;SDS011;61893;50.074;14.440;2022-09-27T11:12:05;2.50;;;0.60;;
73015;SDS011;61893;50.074;14.440;2022-09-27T11:15:02;0.95;;;0.75;;
73015;SDS011;61893;50.074;14.440;2022-09-27T11:18:09;2.45;;;0.80;;
73015;SDS011;61893;50.074;14.440;2022-09-27T11:21:16;0.82;;;0.60;;
73015;SDS011;61893;50.074;14.440;2022-09-27T11:30:48;1.75;;;0.50;;
73015;SDS011;61893;50.074;14.440;2022-09-27T11:43:35;3.15;;;0.60;;
73015;SDS011;61893;50.074;14.440;2022-09-27T11:52:31;1.60;;;0.52;;
73015;SDS011;61893;50.074;14.440;2022-09-27T12:06:13;0.73;;;0.50;;
73015;SDS011;61893;50.074;14.440;2022-09-27T12:08:55;1.35;;;0.50;;
73015;SDS011;61893;50.074;14.440;2022-09-27T12:11:43;1.48;;;0.60;;
73015;SDS011;61893;50.074;14.440;2022-09-27T12:14:42;1.38;;;0.60;;
73015;SDS011;61893;50.074;14.440;2022-09-27T12:17:39;0.98;;;0.60;;
73015;SDS011;61893;50.074;14.440;2022-09-27T12:20:15;0.80;;;0.47;;
73015;SDS011;61893;50.074;14.440;2022-09-27T12:25:22;0.88;;;0.55;;
73015;SDS011;61893;50.074;14.440;2022-09-27T12:28:17;1.23;;;0.60;;
73015;SDS011;61893;50.074;14.440;2022-09-27T12:31:44;0.60;;;0.47;;
73015;SDS011;61893;50.074;14.440;2022-09-27T12:37:34;0.63;;;0.50;;
73015;SDS011;61893;50.074;14.440;2022-09-27T12:40:14;0.73;;;0.40;;
73015;SDS011;61893;50.074;14.440;2022-09-27T12:46:34;1.08;;;0.50;;
73015;SDS011;61893;50.074;14.440;2022-09-27T12:48:47;0.80;;;0.35;;
73015;SDS011;61893;50.074;14.440;2022-09-27T12:51:40;0.55;;;0.50;;
73015;SDS011;61893;50.074;14.440;2022-09-27T12:54:34;0.88;;;0.50;;
73015;SDS011;61893;50.074;14.440;2022-09-27T13:00:18;1.60;;;0.50;;
73015;SDS011;61893;50.074;14.440;2022-09-27T13:08:56;0.43;;;0.32;;
73015;SDS011;61893;50.074;14.440;2022-09-27T13:17:49;0.80;;;0.50;;
73015;SDS011;61893;50.074;14.440;2022-09-27T13:26:01;1.08;;;0.47;;
73015;SDS011;61893;50.074;14.440;2022-09-27T13:37:46;0.40;;;0.30;;
73015;SDS011;61893;50.074;14.440;2022-09-27T13:43:09;1.05;;;0.30;;
73015;SDS011;61893;50.074;14.440;2022-09-27T13:46:23;1.60;;;0.90;;
73015;SDS011;61893;50.074;14.440;2022-09-27T13:51:41;1.45;;;0.95;;
73015;SDS011;61893;50.074;14.440;2022-09-27T13:56:59;1.25;;;0.40;;
73015;SDS011;61893;50.074;14.440;2022-09-27T13:59:32;0.65;;;0.40;;
73015;SDS011;61893;50.074;14.440;2022-09-27T14:04:51;0.50;;;0.50;;
73015;SDS011;61893;50.074;14.440;2022-09-27T14:10:13;0.75;;;0.50;;
73015;SDS011;61893;50.074;14.440;2022-09-27T14:12:41;1.10;;;0.40;;
73015;SDS011;61893;50.074;14.440;2022-09-27T14:15:09;3.00;;;0.30;;
73015;SDS011;61893;50.074;14.440;2022-09-27T14:17:44;0.30;;;0.30;;
73015;SDS011;61893;50.074;14.440;2022-09-27T14:23:04;0.63;;;0.43;;
73015;SDS011;61893;50.074;14.440;2022-09-27T14:25:30;0.90;;;0.43;;
73015;SDS011;61893;50.074;14.440;2022-09-27T14:28:23;0.88;;;0.57;;
73015;SDS011;61893;50.074;14.440;2022-09-27T14:31:13;0.40;;;0.40;;
73015;SDS011;61893;50.074;14.440;2022-09-27T14:33:42;0.70;;;0.50;;
73015;SDS011;61893;50.074;14.440;2022-09-27T14:36:19;0.57;;;0.50;;
73015;SDS011;61893;50.074;14.440;2022-09-27T14:39:19;0.50;;;0.32;;
73015;SDS011;61893;50.074;14.440;2022-09-27T14:41:49;0.60;;;0.47;;
73015;SDS011;61893;50.074;14.440;2022-09-27T14:44:17;0.82;;;0.47;;
73015;SDS011;61893;50.074;14.440;2022-09-27T14:46:45;0.80;;;0.50;;
73015;SDS011;61893;50.074;14.440;2022-09-27T14:49:22;0.68;;;0.40;;
73015;SDS011;61893;50.074;14.440;2022-09-27T14:51:49;0.70;;;0.47;;
73015;SDS011;61893;50.074;14.440;2022-09-27T14:54:23;0.77;;;0.50;;
73015;SDS011;61893;50.074;14.440;2022-09-27T14:56:56;3.03;;;0.60;;
73015;SDS011;61893;50.074;14.440;2022-09-27T14:59:44;1.25;;;0.70;;
73015;SDS011;61893;50.074;14.440;2022-09-27T15:02:16;1.30;;;0.70;;
73015;SDS011;61893;50.074;14.440;2022-09-27T15:04:54;1.38;;;0.65;;
73015;SDS011;61893;50.074;14.440;2022-09-27T15:07:20;1.50;;;0.70;;
73015;SDS011;61893;50.074;14.440;2022-09-27T15:09:46;1.75;;;0.60;;
73015;SDS011;61893;50.074;14.440;2022-09-27T15:12:16;1.92;;;0.80;;
73015;SDS011;61893;50.074;14.440;2022-09-27T15:14:49;0.90;;;0.50;;
73015;SDS011;61893;50.074;14.440;2022-09-27T15:17:17;2.03;;;1.17;;
73015;SDS011;61893;50.074;14.440;2022-09-27T15:19:56;1.08;;;0.70;;
73015;SDS011;61893;50.074;14.440;2022-09-27T15:22:43;1.83;;;0.70;;
73015;SDS011;61893;50.074;14.440;2022-09-27T15:25:17;1.27;;;0.90;;
73015;SDS011;61893;50.074;14.440;2022-09-27T15:27:50;1.10;;;0.80;;
73015;SDS011;61893;50.074;14.440;2022-09-27T15:30:41;0.93;;;0.50;;
73015;SDS011;61893;50.074;14.440;2022-09-27T15:33:17;1.27;;;0.98;;
73015;SDS011;61893;50.074;14.440;2022-09-27T15:35:52;3.00;;;1.90;;
73015;SDS011;61893;50.074;14.440;2022-09-27T15:40:58;2.00;;;0.63;;
73015;SDS011;61893;50.074;14.440;2022-09-27T15:43:36;0.82;;;0.60;;
73015;SDS011;61893;50.074;14.440;2022-09-27T15:48:45;1.77;;;0.93;;
73015;SDS011;61893;50.074;14.440;2022-09-27T15:54:02;4.18;;;1.08;;
73015;SDS011;61893;50.074;14.440;2022-09-27T15:56:28;3.05;;;1.13;;
73015;SDS011;61893;50.074;14.440;2022-09-27T15:58:54;1.63;;;1.00;;
73015;SDS011;61893;50.074;14.440;2022-09-27T16:01:20;2.65;;;1.20;;
73015;SDS011;61893;50.074;14.440;2022-09-27T16:03:48;1.70;;;1.00;;
73015;SDS011;61893;50.074;14.440;2022-09-27T16:06:13;2.33;;;1.35;;
73015;SDS011;61893;50.074;14.440;2022-09-27T16:08:40;1.58;;;1.00;;
73015;SDS011;61893;50.074;14.440;2022-09-27T16:11:08;1.55;;;0.90;;
73015;SDS011;61893;50.074;14.440;2022-09-27T16:13:38;2.55;;;0.90;;
73015;SDS011;61893;50.074;14.440;2022-09-27T16:16:04;0.90;;;0.70;;
73015;SDS011;61893;50.074;14.440;2022-09-27T16:18:30;2.28;;;0.80;;
73015;SDS011;61893;50.074;14.440;2022-09-27T16:20:58;1.48;;;0.95;;
73015;SDS011;61893;50.074;14.440;2022-09-27T16:23:24;2.70;;;0.63;;
73015;SDS011;61893;50.074;14.440;2022-09-27T16:25:53;1.40;;;0.70;;
73015;SDS011;61893;50.074;14.440;2022-09-27T16:28:19;2.30;;;0.93;;
73015;SDS011;61893;50.074;14.440;2022-09-27T16:30:45;1.15;;;0.70;;
73015;SDS011;61893;50.074;14.440;2022-09-27T16:33:12;1.70;;;0.80;;
73015;SDS011;61893;50.074;14.440;2022-09-27T16:35:38;1.83;;;1.00;;
73015;SDS011;61893;50.074;14.440;2022-09-27T16:38:06;1.77;;;1.02;;
73015;SDS011;61893;50.074;14.440;2022-09-27T16:40:31;2.17;;;1.10;;
73015;SDS011;61893;50.074;14.440;2022-09-27T16:42:57;3.65;;;0.80;;
73015;SDS011;61893;50.074;14.440;2022-09-27T16:45:26;1.80;;;1.05;;
73015;SDS011;61893;50.074;14.440;2022-09-27T16:48:01;1.35;;;0.90;;
73015;SDS011;61893;50.074;14.440;2022-09-27T16:50:27;2.15;;;0.98;;
73015;SDS011;61893;50.074;14.440;2022-09-27T16:53:25;0.80;;;0.60;;
73015;SDS011;61893;50.074;14.440;2022-09-27T16:55:51;1.65;;;1.00;;
73015;SDS011;61893;50.074;14.440;2022-09-27T16:58:17;1.50;;;1.10;;
73015;SDS011;61893;50.074;14.440;2022-09-27T17:00:48;5.65;;;1.40;;
73015;SDS011;61893;50.074;14.440;2022-09-27T17:03:14;4.00;;;1.30;;
73015;SDS011;61893;50.074;14.440;2022-09-27T17:05:39;2.65;;;1.27;;
73015;SDS011;61893;50.074;14.440;2022-09-27T17:08:05;3.33;;;1.55;;
73015;SDS011;61893;50.074;14.440;2022-09-27T17:10:31;1.48;;;1.02;;
73015;SDS011;61893;50.074;14.440;2022-09-27T17:13:00;1.40;;;1.00;;
73015;SDS011;61893;50.074;14.440;2022-09-27T17:15:26;1.67;;;1.20;;
73015;SDS011;61893;50.074;14.440;2022-09-27T17:18:06;1.88;;;1.10;;
73015;SDS011;61893;50.074;14.440;2022-09-27T17:20:32;1.40;;;1.00;;
73015;SDS011;61893;50.074;14.440;2022-09-27T17:22:58;2.15;;;1.30;;
73015;SDS011;61893;50.074;14.440;2022-09-27T17:25:24;1.55;;;1.02;;
73015;SDS011;61893;50.074;14.440;2022-09-27T17:27:49;2.13;;;1.02;;
73015;SDS011;61893;50.074;14.440;2022-09-27T17:30:15;1.45;;;0.80;;
73015;SDS011;61893;50.074;14.440;2022-09-27T17:32:41;1.70;;;1.10;;
73015;SDS011;61893;50.074;14.440;2022-09-27T17:35:07;3.28;;;1.00;;
73015;SDS011;61893;50.074;14.440;2022-09-27T17:37:34;1.60;;;0.90;;
73015;SDS011;61893;50.074;14.440;2022-09-27T17:40:00;2.00;;;1.25;;
73015;SDS011;61893;50.074;14.440;2022-09-27T17:42:26;2.58;;;1.27;;
73015;SDS011;61893;50.074;14.440;2022-09-27T17:45:01;1.95;;;1.42;;
73015;SDS011;61893;50.074;14.440;2022-09-27T17:47:28;4.90;;;1.70;;
73015;SDS011;61893;50.074;14.440;2022-09-27T17:50:12;2.65;;;1.55;;
73015;SDS011;61893;50.074;14.440;2022-09-27T17:52:52;3.28;;;1.70;;
73015;SDS011;61893;50.074;14.440;2022-09-27T17:55:19;3.67;;;1.77;;
73015;SDS011;61893;50.074;14.440;2022-09-27T17:57:48;3.10;;;1.50;;
73015;SDS011;61893;50.074;14.440;2022-09-27T18:00:15;3.70;;;2.10;;
73015;SDS011;61893;50.074;14.440;2022-09-27T18:02:42;6.18;;;1.95;;
73015;SDS011;61893;50.074;14.440;2022-09-27T18:05:11;4.80;;;2.03;;
73015;SDS011;61893;50.074;14.440;2022-09-27T18:07:37;3.28;;;1.83;;
73015;SDS011;61893;50.074;14.440;2022-09-27T18:10:09;2.78;;;1.77;;
73015;SDS011;61893;50.074;14.440;2022-09-27T18:12:35;3.17;;;1.70;;
73015;SDS011;61893;50.074;14.440;2022-09-27T18:15:04;3.42;;;1.60;;
73015;SDS011;61893;50.074;14.440;2022-09-27T18:17:31;4.78;;;1.73;;
73015;SDS011;61893;50.074;14.440;2022-09-27T18:19:56;2.90;;;1.92;;